sensor_id;sensor_type;location;lat;lon;timestamp;temperature;humidity
10129;DHT22;5104;50.720;7.044;2022-09-16T02:31:57;12.90;99.90
10129;DHT22;5104;50.720;7.044;2022-09-16T02:34:27;13.00;99.90
10129;DHT22;5104;50.720;7.044;2022-09-16T02:37:00;13.00;99.90
10129;DHT22;5104;50.720;7.044;2022-09-16T02:39:31;13.00;99.90
10129;DHT22;5104;50.720;7.044;2022-09-16T02:42:00;13.00;99.90
10129;DHT22;5104;50.720;7.044;2022-09-16T02:44:27;13.00;99.90
10129;DHT22;5104;50.720;7.044;2022-09-16T02:46:58;13.00;99.90
10129;DHT22;5104;50.720;7.044;2022-09-16T02:49:30;13.00;99.90
10129;DHT22;5104;50.720;7.044;2022-09-16T02:52:04;13.00;99.90
10129;DHT22;5104;50.720;7.044;2022-09-16T02:54:37;13.00;99.90
10129;DHT22;5104;50.720;7.044;2022-09-16T02:57:08;13.00;99.90
10129;DHT22;5104;50.720;7.044;2022-09-16T02:59:36;13.00;99.90
10129;DHT22;5104;50.720;7.044;2022-09-16T03:02:05;13.00;99.90
10129;DHT22;5104;50.720;7.044;2022-09-16T03:04:33;13.00;99.90
10129;DHT22;5104;50.720;7.044;2022-09-16T03:07:02;13.00;99.90
10129;DHT22;5104;50.720;7.044;2022-09-16T03:09:32;12.90;99.90
10129;DHT22;5104;50.720;7.044;2022-09-16T03:12:26;12.90;99.90
10129;DHT22;5104;50.720;7.044;2022-09-16T03:15:06;12.90;99.90
10129;DHT22;5104;50.720;7.044;2022-09-16T03:17:50;12.90;99.90
10129;DHT22;5104;50.720;7.044;2022-09-16T03:20:25;12.90;99.90
10129;DHT22;5104;50.720;7.044;2022-09-16T03:23:03;12.90;99.90
10129;DHT22;5104;50.720;7.044;2022-09-16T03:25:43;12.90;99.90
10129;DHT22;5104;50.720;7.044;2022-09-16T03:28:15;12.80;99.90
10129;DHT22;5104;50.720;7.044;2022-09-16T03:30:47;12.80;99.90
10129;DHT22;5104;50.720;7.044;2022-09-16T03:33:22;12.80;99.90
10129;DHT22;5104;50.720;7.044;2022-09-16T03:35:51;12.70;99.90
10129;DHT22;5104;50.720;7.044;2022-09-16T03:38:22;12.70;99.90
10129;DHT22;5104;50.720;7.044;2022-09-16T03:40:50;12.70;99.90
10129;DHT22;5104;50.720;7.044;2022-09-16T03:43:17;12.70;99.90
10129;DHT22;5104;50.720;7.044;2022-09-16T03:45:44;12.70;99.90
10129;DHT22;5104;50.720;7.044;2022-09-16T03:48:11;12.60;99.90
10129;DHT22;5104;50.720;7.044;2022-09-16T03:50:40;12.60;99.90
10129;DHT22;5104;50.720;7.044;2022-09-16T03:53:07;12.60;99.90
10129;DHT22;5104;50.720;7.044;2022-09-16T03:55:33;12.60;99.90
10129;DHT22;5104;50.720;7.044;2022-09-16T03:58:00;12.60;99.90
10129;DHT22;5104;50.720;7.044;2022-09-16T04:00:27;12.50;99.90
10129;DHT22;5104;50.720;7.044;2022-09-16T04:02:54;12.50;99.90
10129;DHT22;5104;50.720;7.044;2022-09-16T04:05:21;12.50;99.90
10129;DHT22;5104;50.720;7.044;2022-09-16T04:07:49;12.50;99.90
10129;DHT22;5104;50.720;7.044;2022-09-16T04:10:16;12.50;99.90
10129;DHT22;5104;50.720;7.044;2022-09-16T04:12:43;12.50;99.90
10129;DHT22;5104;50.720;7.044;2022-09-16T04:15:10;12.60;99.90
10129;DHT22;5104;50.720;7.044;2022-09-16T04:17:37;12.60;99.90
10129;DHT22;5104;50.720;7.044;2022-09-16T04:20:05;12.60;99.90
10129;DHT22;5104;50.720;7.044;2022-09-16T04:22:33;12.60;99.90
10129;DHT22;5104;50.720;7.044;2022-09-16T04:25:01;12.60;99.90
10129;DHT22;5104;50.720;7.044;2022-09-16T04:27:29;12.60;99.90
10129;DHT22;5104;50.720;7.044;2022-09-16T04:29:55;12.50;99.90
10129;DHT22;5104;50.720;7.044;2022-09-16T04:32:23;12.50;99.90
10129;DHT22;5104;50.720;7.044;2022-09-16T04:34:50;12.50;99.90
10129;DHT22;5104;50.720;7.044;2022-09-16T04:37:17;12.50;99.90
10129;DHT22;5104;50.720;7.044;2022-09-16T04:39:44;12.50;99.90
10129;DHT22;5104;50.720;7.044;2022-09-16T04:42:12;12.50;99.90
10129;DHT22;5104;50.720;7.044;2022-09-16T04:44:39;12.60;99.90
10129;DHT22;5104;50.720;7.044;2022-09-16T04:47:06;12.60;99.90
10129;DHT22;5104;50.720;7.044;2022-09-16T04:49:33;12.60;99.90
10129;DHT22;5104;50.720;7.044;2022-09-16T04:52:00;12.60;99.90
10129;DHT22;5104;50.720;7.044;2022-09-16T04:54:27;12.60;99.90
10129;DHT22;5104;50.720;7.044;2022-09-16T04:56:54;12.60;99.90
10129;DHT22;5104;50.720;7.044;2022-09-16T04:59:23;12.50;99.90
10129;DHT22;5104;50.720;7.044;2022-09-16T05:01:50;12.50;99.90
10129;DHT22;5104;50.720;7.044;2022-09-16T05:04:17;12.40;99.90
10129;DHT22;5104;50.720;7.044;2022-09-16T05:06:43;12.40;99.90
10129;DHT22;5104;50.720;7.044;2022-09-16T05:09:11;12.30;99.90
10129;DHT22;5104;50.720;7.044;2022-09-16T05:11:39;12.30;99.90
10129;DHT22;5104;50.720;7.044;2022-09-16T05:14:09;12.30;99.90
10129;DHT22;5104;50.720;7.044;2022-09-16T05:16:38;12.20;99.90
10129;DHT22;5104;50.720;7.044;2022-09-16T05:19:05;12.20;99.90
10129;DHT22;5104;50.720;7.044;2022-09-16T05:21:33;12.10;99.90
10129;DHT22;5104;50.720;7.044;2022-09-16T05:24:01;12.10;99.90
10129;DHT22;5104;50.720;7.044;2022-09-16T05:26:30;12.10;99.90
10129;DHT22;5104;50.720;7.044;2022-09-16T05:28:59;12.10;99.90
10129;DHT22;5104;50.720;7.044;2022-09-16T05:31:27;12.20;99.90
10129;DHT22;5104;50.720;7.044;2022-09-16T05:33:58;12.30;99.90
10129;DHT22;5104;50.720;7.044;2022-09-16T05:36:25;12.40;99.90
10129;DHT22;5104;50.720;7.044;2022-09-16T05:38:53;12.50;99.90
10129;DHT22;5104;50.720;7.044;2022-09-16T05:41:20;12.60;99.90
10129;DHT22;5104;50.720;7.044;2022-09-16T05:43:47;12.60;99.90
10129;DHT22;5104;50.720;7.044;2022-09-16T05:46:17;12.70;99.90
10129;DHT22;5104;50.720;7.044;2022-09-16T05:48:44;12.70;99.90
10129;DHT22;5104;50.720;7.044;2022-09-16T05:51:15;12.80;49.10
10129;DHT22;5104;50.720;7.044;2022-09-16T05:53:42;12.90;23.70
10129;DHT22;5104;50.720;7.044;2022-09-16T05:56:11;13.00;1.00
10129;DHT22;5104;50.720;7.044;2022-09-16T05:58:38;13.10;1.00
10129;DHT22;5104;50.720;7.044;2022-09-16T06:01:06;13.10;1.00
10129;DHT22;5104;50.720;7.044;2022-09-16T06:03:35;13.20;1.00
10129;DHT22;5104;50.720;7.044;2022-09-16T06:06:05;13.20;1.00
10129;DHT22;5104;50.720;7.044;2022-09-16T06:08:34;13.30;1.00
10129;DHT22;5104;50.720;7.044;2022-09-16T06:11:02;13.40;1.00
10129;DHT22;5104;50.720;7.044;2022-09-16T06:13:29;13.40;1.00
10129;DHT22;5104;50.720;7.044;2022-09-16T06:15:56;13.50;1.00
10129;DHT22;5104;50.720;7.044;2022-09-16T06:18:25;13.50;1.00
10129;DHT22;5104;50.720;7.044;2022-09-16T06:20:52;13.50;99.90
10129;DHT22;5104;50.720;7.044;2022-09-16T06:23:19;13.50;99.90
10129;DHT22;5104;50.720;7.044;2022-09-16T06:25:48;13.60;99.90
10129;DHT22;5104;50.720;7.044;2022-09-16T06:28:15;13.70;1.00
10129;DHT22;5104;50.720;7.044;2022-09-16T06:30:42;13.70;1.00
10129;DHT22;5104;50.720;7.044;2022-09-16T06:33:09;13.80;1.00
10129;DHT22;5104;50.720;7.044;2022-09-16T06:35:37;13.90;1.00
10129;DHT22;5104;50.720;7.044;2022-09-16T06:38:04;14.00;77.90
10129;DHT22;5104;50.720;7.044;2022-09-16T06:40:30;14.00;1.00
10129;DHT22;5104;50.720;7.044;2022-09-16T06:42:59;14.20;1.00
10129;DHT22;5104;50.720;7.044;2022-09-16T06:45:25;14.20;99.90
10129;DHT22;5104;50.720;7.044;2022-09-16T06:47:58;14.40;99.90
10129;DHT22;5104;50.720;7.044;2022-09-16T06:50:25;14.50;1.00
10129;DHT22;5104;50.720;7.044;2022-09-16T06:52:52;14.60;1.00
10129;DHT22;5104;50.720;7.044;2022-09-16T06:55:19;14.70;99.90
10129;DHT22;5104;50.720;7.044;2022-09-16T06:57:45;14.70;18.10
10129;DHT22;5104;50.720;7.044;2022-09-16T07:00:14;14.70;1.00
10129;DHT22;5104;50.720;7.044;2022-09-16T07:02:41;14.80;1.00
10129;DHT22;5104;50.720;7.044;2022-09-16T07:05:08;14.80;1.00
10129;DHT22;5104;50.720;7.044;2022-09-16T07:07:36;14.80;99.90
10129;DHT22;5104;50.720;7.044;2022-09-16T07:10:04;14.90;1.00
10129;DHT22;5104;50.720;7.044;2022-09-16T07:12:31;14.90;1.00
10129;DHT22;5104;50.720;7.044;2022-09-16T07:14:58;14.80;99.90
10129;DHT22;5104;50.720;7.044;2022-09-16T07:17:26;14.70;1.00
10129;DHT22;5104;50.720;7.044;2022-09-16T07:19:54;14.70;1.00
10129;DHT22;5104;50.720;7.044;2022-09-16T07:22:21;14.60;99.90
10129;DHT22;5104;50.720;7.044;2022-09-16T07:24:48;14.50;1.00
10129;DHT22;5104;50.720;7.044;2022-09-16T07:27:15;14.60;1.00
10129;DHT22;5104;50.720;7.044;2022-09-16T07:29:42;14.70;1.00
10129;DHT22;5104;50.720;7.044;2022-09-16T07:32:08;14.70;99.90
10129;DHT22;5104;50.720;7.044;2022-09-16T07:34:37;14.80;78.90
10129;DHT22;5104;50.720;7.044;2022-09-16T07:37:03;15.10;1.00
10129;DHT22;5104;50.720;7.044;2022-09-16T07:39:31;15.50;1.00
10129;DHT22;5104;50.720;7.044;2022-09-16T07:41:57;15.60;1.00
10129;DHT22;5104;50.720;7.044;2022-09-16T07:44:26;15.80;99.90
10129;DHT22;5104;50.720;7.044;2022-09-16T07:46:53;15.80;1.00
10129;DHT22;5104;50.720;7.044;2022-09-16T07:49:20;15.80;1.00
10129;DHT22;5104;50.720;7.044;2022-09-16T07:51:48;15.80;1.00
10129;DHT22;5104;50.720;7.044;2022-09-16T07:54:16;15.90;1.00
10129;DHT22;5104;50.720;7.044;2022-09-16T07:56:44;16.10;1.00
10129;DHT22;5104;50.720;7.044;2022-09-16T07:59:13;15.90;1.00
10129;DHT22;5104;50.720;7.044;2022-09-16T08:01:40;16.00;1.00
10129;DHT22;5104;50.720;7.044;2022-09-16T08:04:07;15.90;1.00
10129;DHT22;5104;50.720;7.044;2022-09-16T08:06:37;15.70;79.50
10129;DHT22;5104;50.720;7.044;2022-09-16T08:09:06;15.60;1.00
10129;DHT22;5104;50.720;7.044;2022-09-16T08:11:33;15.50;99.90
10129;DHT22;5104;50.720;7.044;2022-09-16T08:14:00;15.40;99.90
10129;DHT22;5104;50.720;7.044;2022-09-16T08:16:27;15.40;1.00
10129;DHT22;5104;50.720;7.044;2022-09-16T08:18:56;15.60;16.40
10129;DHT22;5104;50.720;7.044;2022-09-16T08:21:25;15.80;1.00
10129;DHT22;5104;50.720;7.044;2022-09-16T08:23:53;16.00;79.30
10129;DHT22;5104;50.720;7.044;2022-09-16T08:26:22;16.00;99.90
10129;DHT22;5104;50.720;7.044;2022-09-16T08:28:50;16.10;99.90
10129;DHT22;5104;50.720;7.044;2022-09-16T08:31:18;16.30;99.90
10129;DHT22;5104;50.720;7.044;2022-09-16T08:33:45;16.40;35.50
10129;DHT22;5104;50.720;7.044;2022-09-16T08:36:14;16.20;1.00
10129;DHT22;5104;50.720;7.044;2022-09-16T08:38:43;16.20;1.00
10129;DHT22;5104;50.720;7.044;2022-09-16T08:41:32;16.00;99.90
10129;DHT22;5104;50.720;7.044;2022-09-16T08:44:11;16.30;99.90
10129;DHT22;5104;50.720;7.044;2022-09-16T08:46:44;16.40;1.00
10129;DHT22;5104;50.720;7.044;2022-09-16T08:49:26;16.30;1.00
10129;DHT22;5104;50.720;7.044;2022-09-16T08:51:56;16.10;99.90
10129;DHT22;5104;50.720;7.044;2022-09-16T08:54:27;15.90;1.00
10129;DHT22;5104;50.720;7.044;2022-09-16T08:57:00;16.00;1.00
10129;DHT22;5104;50.720;7.044;2022-09-16T08:59:33;16.10;1.00
10129;DHT22;5104;50.720;7.044;2022-09-16T09:02:25;16.20;1.00
10129;DHT22;5104;50.720;7.044;2022-09-16T09:04:54;16.30;99.90
10129;DHT22;5104;50.720;7.044;2022-09-16T09:07:28;16.30;25.00
10129;DHT22;5104;50.720;7.044;2022-09-16T09:10:09;16.30;1.00
10129;DHT22;5104;50.720;7.044;2022-09-16T09:12:46;16.00;1.00
10129;DHT22;5104;50.720;7.044;2022-09-16T09:15:25;16.00;1.00
10129;DHT22;5104;50.720;7.044;2022-09-16T09:18:06;16.10;1.00
10129;DHT22;5104;50.720;7.044;2022-09-16T09:20:44;16.20;1.00
10129;DHT22;5104;50.720;7.044;2022-09-16T09:23:31;16.50;1.00
10129;DHT22;5104;50.720;7.044;2022-09-16T09:26:04;16.80;99.90
10129;DHT22;5104;50.720;7.044;2022-09-16T09:28:52;16.90;1.00
10129;DHT22;5104;50.720;7.044;2022-09-16T09:31:28;17.10;1.00
10129;DHT22;5104;50.720;7.044;2022-09-16T09:34:03;17.50;1.00
10129;DHT22;5104;50.720;7.044;2022-09-16T09:36:48;17.60;99.90
10129;DHT22;5104;50.720;7.044;2022-09-16T09:39:28;17.50;99.90
10129;DHT22;5104;50.720;7.044;2022-09-16T09:42:02;17.30;99.90
10129;DHT22;5104;50.720;7.044;2022-09-16T09:44:49;17.50;99.90
10129;DHT22;5104;50.720;7.044;2022-09-16T09:47:21;17.40;99.90
10129;DHT22;5104;50.720;7.044;2022-09-16T09:49:50;17.30;1.00
10129;DHT22;5104;50.720;7.044;2022-09-16T09:52:22;17.20;99.90
10129;DHT22;5104;50.720;7.044;2022-09-16T09:54:51;17.20;1.00
10129;DHT22;5104;50.720;7.044;2022-09-16T09:57:26;17.00;1.00
10129;DHT22;5104;50.720;7.044;2022-09-16T10:00:02;17.00;1.00
10129;DHT22;5104;50.720;7.044;2022-09-16T10:02:33;17.00;1.00
10129;DHT22;5104;50.720;7.044;2022-09-16T10:05:00;17.50;99.90
10129;DHT22;5104;50.720;7.044;2022-09-16T10:07:27;17.60;99.90
10129;DHT22;5104;50.720;7.044;2022-09-16T10:09:58;18.00;59.00
10129;DHT22;5104;50.720;7.044;2022-09-16T10:12:30;18.30;1.00
10129;DHT22;5104;50.720;7.044;2022-09-16T10:14:59;18.60;1.00
10129;DHT22;5104;50.720;7.044;2022-09-16T10:17:28;18.50;1.00
10129;DHT22;5104;50.720;7.044;2022-09-16T10:19:59;18.30;1.00
10129;DHT22;5104;50.720;7.044;2022-09-16T10:22:30;18.20;1.00
10129;DHT22;5104;50.720;7.044;2022-09-16T10:24:59;18.20;1.00
10129;DHT22;5104;50.720;7.044;2022-09-16T10:27:29;17.80;1.00
10129;DHT22;5104;50.720;7.044;2022-09-16T10:30:05;18.00;1.00
10129;DHT22;5104;50.720;7.044;2022-09-16T10:32:33;17.80;1.00
10129;DHT22;5104;50.720;7.044;2022-09-16T10:35:06;17.60;1.00
10129;DHT22;5104;50.720;7.044;2022-09-16T10:37:33;17.30;99.90
10129;DHT22;5104;50.720;7.044;2022-09-16T10:40:01;17.00;99.90
10129;DHT22;5104;50.720;7.044;2022-09-16T10:42:30;16.80;1.00
10129;DHT22;5104;50.720;7.044;2022-09-16T10:45:12;16.70;1.00
10129;DHT22;5104;50.720;7.044;2022-09-16T10:47:39;16.80;1.00
10129;DHT22;5104;50.720;7.044;2022-09-16T10:50:14;16.90;1.00
10129;DHT22;5104;50.720;7.044;2022-09-16T10:52:44;17.00;99.90
10129;DHT22;5104;50.720;7.044;2022-09-16T10:55:24;17.30;99.90
10129;DHT22;5104;50.720;7.044;2022-09-16T10:57:52;17.70;99.90
10129;DHT22;5104;50.720;7.044;2022-09-16T11:00:22;18.00;1.00
10129;DHT22;5104;50.720;7.044;2022-09-16T11:03:25;18.00;1.00
10129;DHT22;5104;50.720;7.044;2022-09-16T11:06:06;18.10;1.00
10129;DHT22;5104;50.720;7.044;2022-09-16T11:08:46;17.90;1.00
10129;DHT22;5104;50.720;7.044;2022-09-16T11:11:25;17.70;1.00
10129;DHT22;5104;50.720;7.044;2022-09-16T11:13:58;17.50;1.00
10129;DHT22;5104;50.720;7.044;2022-09-16T11:16:46;17.20;1.00
10129;DHT22;5104;50.720;7.044;2022-09-16T11:19:24;17.20;1.00
10129;DHT22;5104;50.720;7.044;2022-09-16T11:22:08;17.50;1.00
10129;DHT22;5104;50.720;7.044;2022-09-16T11:25:07;17.70;1.00
10129;DHT22;5104;50.720;7.044;2022-09-16T11:27:47;17.90;1.00
10129;DHT22;5104;50.720;7.044;2022-09-16T11:30:18;18.00;1.00
10129;DHT22;5104;50.720;7.044;2022-09-16T11:33:03;18.20;1.00
10129;DHT22;5104;50.720;7.044;2022-09-16T11:35:57;18.20;1.00
10129;DHT22;5104;50.720;7.044;2022-09-16T11:38:34;18.20;1.00
10129;DHT22;5104;50.720;7.044;2022-09-16T11:41:14;18.00;1.00
10129;DHT22;5104;50.720;7.044;2022-09-16T11:44:02;18.10;1.00
10129;DHT22;5104;50.720;7.044;2022-09-16T11:46:35;18.20;1.00
10129;DHT22;5104;50.720;7.044;2022-09-16T11:49:24;18.20;1.00
10129;DHT22;5104;50.720;7.044;2022-09-16T11:52:02;17.90;1.00
10129;DHT22;5104;50.720;7.044;2022-09-16T11:54:48;17.90;1.00
10129;DHT22;5104;50.720;7.044;2022-09-16T11:57:23;17.90;1.00
10129;DHT22;5104;50.720;7.044;2022-09-16T11:59:54;18.00;1.00
10129;DHT22;5104;50.720;7.044;2022-09-16T12:02:25;18.10;1.00
10129;DHT22;5104;50.720;7.044;2022-09-16T12:05:00;18.00;1.00
10129;DHT22;5104;50.720;7.044;2022-09-16T12:07:31;18.00;1.00
10129;DHT22;5104;50.720;7.044;2022-09-16T12:10:04;18.10;1.00
10129;DHT22;5104;50.720;7.044;2022-09-16T12:12:36;18.50;1.00
10129;DHT22;5104;50.720;7.044;2022-09-16T12:15:11;18.80;99.90
10129;DHT22;5104;50.720;7.044;2022-09-16T12:17:49;18.70;99.90
10129;DHT22;5104;50.720;7.044;2022-09-16T12:20:21;18.80;1.00
10129;DHT22;5104;50.720;7.044;2022-09-16T12:22:53;18.60;1.00
10129;DHT22;5104;50.720;7.044;2022-09-16T12:25:25;18.40;1.00
10129;DHT22;5104;50.720;7.044;2022-09-16T12:27:59;17.80;1.00
10129;DHT22;5104;50.720;7.044;2022-09-16T12:30:30;16.20;1.00
10129;DHT22;5104;50.720;7.044;2022-09-16T12:33:04;14.40;75.10
10129;DHT22;5104;50.720;7.044;2022-09-16T12:35:37;13.10;99.90
10129;DHT22;5104;50.720;7.044;2022-09-16T12:38:11;12.60;99.90
10129;DHT22;5104;50.720;7.044;2022-09-16T12:40:51;12.40;99.90
10129;DHT22;5104;50.720;7.044;2022-09-16T12:43:48;12.40;99.90
10129;DHT22;5104;50.720;7.044;2022-09-16T12:46:30;12.40;99.90
10129;DHT22;5104;50.720;7.044;2022-09-16T12:52:31;12.40;99.90
10129;DHT22;5104;50.720;7.044;2022-09-16T12:58:42;12.60;99.90
10129;DHT22;5104;50.720;7.044;2022-09-16T13:01:19;12.70;99.90
10129;DHT22;5104;50.720;7.044;2022-09-16T13:03:51;12.70;99.90
10129;DHT22;5104;50.720;7.044;2022-09-16T13:06:22;12.70;99.90
10129;DHT22;5104;50.720;7.044;2022-09-16T13:08:53;12.70;99.90
10129;DHT22;5104;50.720;7.044;2022-09-16T13:11:22;12.80;99.90
10129;DHT22;5104;50.720;7.044;2022-09-16T13:13:52;13.00;99.90
10129;DHT22;5104;50.720;7.044;2022-09-16T13:16:29;13.10;99.90
10129;DHT22;5104;50.720;7.044;2022-09-16T13:19:23;13.10;99.90
10129;DHT22;5104;50.720;7.044;2022-09-16T13:21:55;13.10;99.90
10129;DHT22;5104;50.720;7.044;2022-09-16T13:24:30;13.10;99.90
10129;DHT22;5104;50.720;7.044;2022-09-16T13:26:59;13.00;99.90
10129;DHT22;5104;50.720;7.044;2022-09-16T13:29:37;12.90;99.90
10129;DHT22;5104;50.720;7.044;2022-09-16T13:32:22;12.90;99.90
10129;DHT22;5104;50.720;7.044;2022-09-16T13:35:00;12.90;99.90
10129;DHT22;5104;50.720;7.044;2022-09-16T13:37:28;12.70;99.90
10129;DHT22;5104;50.720;7.044;2022-09-16T13:40:07;12.60;99.90
10129;DHT22;5104;50.720;7.044;2022-09-16T13:42:34;12.50;99.90
10129;DHT22;5104;50.720;7.044;2022-09-16T13:45:01;12.40;99.90
10129;DHT22;5104;50.720;7.044;2022-09-16T13:47:30;12.30;99.90
10129;DHT22;5104;50.720;7.044;2022-09-16T13:50:03;12.20;99.90
10129;DHT22;5104;50.720;7.044;2022-09-16T13:52:33;12.20;99.90
10129;DHT22;5104;50.720;7.044;2022-09-16T13:55:03;12.20;99.90
10129;DHT22;5104;50.720;7.044;2022-09-16T13:57:49;12.20;99.90
10129;DHT22;5104;50.720;7.044;2022-09-16T14:00:20;12.30;99.90
10129;DHT22;5104;50.720;7.044;2022-09-16T14:02:57;12.50;99.90
10129;DHT22;5104;50.720;7.044;2022-09-16T14:05:42;12.60;99.90
10129;DHT22;5104;50.720;7.044;2022-09-16T14:08:17;12.80;99.90
10129;DHT22;5104;50.720;7.044;2022-09-16T14:11:00;13.10;99.90
10129;DHT22;5104;50.720;7.044;2022-09-16T14:13:34;13.30;99.90
10129;DHT22;5104;50.720;7.044;2022-09-16T14:16:11;13.40;99.90
10129;DHT22;5104;50.720;7.044;2022-09-16T14:18:43;13.30;99.90
10129;DHT22;5104;50.720;7.044;2022-09-16T14:21:18;13.30;99.90
10129;DHT22;5104;50.720;7.044;2022-09-16T14:23:45;13.50;99.90
10129;DHT22;5104;50.720;7.044;2022-09-16T14:26:17;13.60;99.90
10129;DHT22;5104;50.720;7.044;2022-09-16T14:28:44;13.60;99.90
10129;DHT22;5104;50.720;7.044;2022-09-16T14:31:14;13.50;99.90
10129;DHT22;5104;50.720;7.044;2022-09-16T14:33:44;13.50;99.90
10129;DHT22;5104;50.720;7.044;2022-09-16T14:36:15;13.40;99.90
10129;DHT22;5104;50.720;7.044;2022-09-16T14:38:45;13.40;99.90
10129;DHT22;5104;50.720;7.044;2022-09-16T14:41:21;13.40;99.90
10129;DHT22;5104;50.720;7.044;2022-09-16T14:43:49;13.30;99.90
10129;DHT22;5104;50.720;7.044;2022-09-16T14:46:17;13.50;99.90
10129;DHT22;5104;50.720;7.044;2022-09-16T14:48:44;13.60;99.90
10129;DHT22;5104;50.720;7.044;2022-09-16T14:51:18;14.00;99.90
10129;DHT22;5104;50.720;7.044;2022-09-16T14:53:53;14.10;20.00
10129;DHT22;5104;50.720;7.044;2022-09-16T14:56:23;14.30;1.30
10129;DHT22;5104;50.720;7.044;2022-09-16T14:58:50;14.30;1.00
10129;DHT22;5104;50.720;7.044;2022-09-16T15:01:21;14.30;1.00
10129;DHT22;5104;50.720;7.044;2022-09-16T15:03:52;14.40;1.00
10129;DHT22;5104;50.720;7.044;2022-09-16T15:06:23;14.40;1.00
10129;DHT22;5104;50.720;7.044;2022-09-16T15:08:53;14.40;1.00
10129;DHT22;5104;50.720;7.044;2022-09-16T15:11:27;14.20;1.00
10129;DHT22;5104;50.720;7.044;2022-09-16T15:13:55;14.10;1.00
10129;DHT22;5104;50.720;7.044;2022-09-16T15:16:23;14.10;1.00
10129;DHT22;5104;50.720;7.044;2022-09-16T15:18:53;14.20;1.00
10129;DHT22;5104;50.720;7.044;2022-09-16T15:21:24;14.40;1.00
10129;DHT22;5104;50.720;7.044;2022-09-16T15:23:54;14.50;1.00
10129;DHT22;5104;50.720;7.044;2022-09-16T15:26:24;14.50;99.90
10129;DHT22;5104;50.720;7.044;2022-09-16T15:28:54;14.50;99.90
10129;DHT22;5104;50.720;7.044;2022-09-16T15:31:26;14.50;99.90
10129;DHT22;5104;50.720;7.044;2022-09-16T15:33:53;14.60;1.00
10129;DHT22;5104;50.720;7.044;2022-09-16T15:36:32;14.50;99.90
10129;DHT22;5104;50.720;7.044;2022-09-16T15:38:59;14.30;99.90
10129;DHT22;5104;50.720;7.044;2022-09-16T15:41:27;14.10;1.00
10129;DHT22;5104;50.720;7.044;2022-09-16T15:43:57;14.00;1.00
10129;DHT22;5104;50.720;7.044;2022-09-16T15:46:24;13.90;1.00
10129;DHT22;5104;50.720;7.044;2022-09-16T15:48:54;13.80;1.00
10129;DHT22;5104;50.720;7.044;2022-09-16T15:51:25;13.80;1.00
10129;DHT22;5104;50.720;7.044;2022-09-16T15:53:56;14.00;1.00
10129;DHT22;5104;50.720;7.044;2022-09-16T15:56:29;14.10;1.00
10129;DHT22;5104;50.720;7.044;2022-09-16T15:58:59;14.20;1.00
10129;DHT22;5104;50.720;7.044;2022-09-16T16:01:40;14.10;1.00
10129;DHT22;5104;50.720;7.044;2022-09-16T16:04:11;14.00;99.90
10129;DHT22;5104;50.720;7.044;2022-09-16T16:06:44;13.90;1.00
10129;DHT22;5104;50.720;7.044;2022-09-16T16:09:27;13.80;1.00
10129;DHT22;5104;50.720;7.044;2022-09-16T16:11:57;13.60;99.90
10129;DHT22;5104;50.720;7.044;2022-09-16T16:14:27;13.50;1.00
10129;DHT22;5104;50.720;7.044;2022-09-16T16:16:57;13.40;1.00
10129;DHT22;5104;50.720;7.044;2022-09-16T16:19:24;13.30;1.00
10129;DHT22;5104;50.720;7.044;2022-09-16T16:21:53;13.30;1.00
10129;DHT22;5104;50.720;7.044;2022-09-16T16:24:22;13.10;1.00
10129;DHT22;5104;50.720;7.044;2022-09-16T16:26:49;13.10;1.00
10129;DHT22;5104;50.720;7.044;2022-09-16T16:29:17;13.00;1.00
10129;DHT22;5104;50.720;7.044;2022-09-16T16:32:04;12.90;16.90
10129;DHT22;5104;50.720;7.044;2022-09-16T16:34:32;12.90;28.60
10129;DHT22;5104;50.720;7.044;2022-09-16T16:36:59;12.80;35.20
10129;DHT22;5104;50.720;7.044;2022-09-16T16:39:26;12.80;93.70
10129;DHT22;5104;50.720;7.044;2022-09-16T16:41:53;12.80;1.00
10129;DHT22;5104;50.720;7.044;2022-09-16T16:44:22;12.90;1.00
10129;DHT22;5104;50.720;7.044;2022-09-16T16:46:50;13.00;1.00
10129;DHT22;5104;50.720;7.044;2022-09-16T16:49:17;13.00;1.00
10129;DHT22;5104;50.720;7.044;2022-09-16T16:51:44;13.20;1.00
10129;DHT22;5104;50.720;7.044;2022-09-16T16:54:12;13.60;1.00
10129;DHT22;5104;50.720;7.044;2022-09-16T16:56:39;14.00;99.90
10129;DHT22;5104;50.720;7.044;2022-09-16T16:59:06;14.40;1.00
10129;DHT22;5104;50.720;7.044;2022-09-16T17:01:34;14.30;1.00
10129;DHT22;5104;50.720;7.044;2022-09-16T17:04:02;14.20;99.90
10129;DHT22;5104;50.720;7.044;2022-09-16T17:06:30;13.80;99.90
10129;DHT22;5104;50.720;7.044;2022-09-16T17:08:57;13.60;1.00
10129;DHT22;5104;50.720;7.044;2022-09-16T17:11:24;13.30;99.90
10129;DHT22;5104;50.720;7.044;2022-09-16T17:13:52;13.10;1.00
10129;DHT22;5104;50.720;7.044;2022-09-16T17:16:23;12.90;1.00
10129;DHT22;5104;50.720;7.044;2022-09-16T17:18:52;12.60;1.00
10129;DHT22;5104;50.720;7.044;2022-09-16T17:21:21;12.40;1.00
10129;DHT22;5104;50.720;7.044;2022-09-16T17:23:48;12.30;1.00
10129;DHT22;5104;50.720;7.044;2022-09-16T17:26:15;12.20;72.90
10129;DHT22;5104;50.720;7.044;2022-09-16T17:28:44;12.00;99.90
10129;DHT22;5104;50.720;7.044;2022-09-16T17:31:14;11.90;99.90
10129;DHT22;5104;50.720;7.044;2022-09-16T17:33:42;11.80;99.90
10129;DHT22;5104;50.720;7.044;2022-09-16T17:36:12;11.70;99.90
10129;DHT22;5104;50.720;7.044;2022-09-16T17:38:39;11.60;99.90
10129;DHT22;5104;50.720;7.044;2022-09-16T17:41:08;11.50;99.90
10129;DHT22;5104;50.720;7.044;2022-09-16T17:43:36;11.50;99.90
10129;DHT22;5104;50.720;7.044;2022-09-16T17:46:06;11.40;99.90
10129;DHT22;5104;50.720;7.044;2022-09-16T17:48:33;11.30;99.90
10129;DHT22;5104;50.720;7.044;2022-09-16T17:51:02;11.30;99.90
10129;DHT22;5104;50.720;7.044;2022-09-16T17:53:31;11.20;99.90
10129;DHT22;5104;50.720;7.044;2022-09-16T17:56:02;11.20;99.90
10129;DHT22;5104;50.720;7.044;2022-09-16T17:58:30;11.10;99.90
10129;DHT22;5104;50.720;7.044;2022-09-16T18:01:06;11.10;99.90
10129;DHT22;5104;50.720;7.044;2022-09-16T18:03:33;11.10;99.90
10129;DHT22;5104;50.720;7.044;2022-09-16T18:06:07;11.00;99.90
10129;DHT22;5104;50.720;7.044;2022-09-16T18:08:36;11.00;99.90
10129;DHT22;5104;50.720;7.044;2022-09-16T18:11:04;10.90;99.90
10129;DHT22;5104;50.720;7.044;2022-09-16T18:13:31;10.90;99.90
10129;DHT22;5104;50.720;7.044;2022-09-16T18:16:01;10.80;99.90
10129;DHT22;5104;50.720;7.044;2022-09-16T18:18:28;10.80;99.90
10129;DHT22;5104;50.720;7.044;2022-09-16T18:20:56;10.80;99.90
10129;DHT22;5104;50.720;7.044;2022-09-16T18:23:23;10.80;99.90
10129;DHT22;5104;50.720;7.044;2022-09-16T18:25:52;10.80;99.90
10129;DHT22;5104;50.720;7.044;2022-09-16T18:28:18;10.80;99.90
10129;DHT22;5104;50.720;7.044;2022-09-16T18:30:45;10.70;99.90
10129;DHT22;5104;50.720;7.044;2022-09-16T18:33:12;10.70;99.90
10129;DHT22;5104;50.720;7.044;2022-09-16T18:35:39;10.70;99.90
10129;DHT22;5104;50.720;7.044;2022-09-16T18:38:08;10.70;99.90
10129;DHT22;5104;50.720;7.044;2022-09-16T18:40:35;10.60;99.90
10129;DHT22;5104;50.720;7.044;2022-09-16T18:43:04;10.60;99.90
10129;DHT22;5104;50.720;7.044;2022-09-16T18:45:31;10.60;99.90
10129;DHT22;5104;50.720;7.044;2022-09-16T18:47:58;10.50;99.90
10129;DHT22;5104;50.720;7.044;2022-09-16T18:50:24;10.60;99.90
10129;DHT22;5104;50.720;7.044;2022-09-16T18:52:51;10.50;99.90
10129;DHT22;5104;50.720;7.044;2022-09-16T18:55:18;10.50;99.90